createdAt,value
2023-02-24T00:02:01.656Z,3.40
2023-02-24T00:04:31.108Z,3.40
2023-02-24T00:06:58.058Z,3.50
2023-02-24T00:09:27.235Z,3.40
2023-02-24T00:12:08.888Z,3.40
2023-02-24T00:14:37.927Z,3.40
2023-02-24T00:17:06.257Z,3.40
2023-02-24T00:19:33.139Z,3.30
2023-02-24T00:22:01.930Z,3.30
2023-02-24T00:24:29.121Z,3.30
2023-02-24T00:26:59.648Z,3.30
2023-02-24T00:29:28.970Z,3.30
2023-02-24T00:32:00.991Z,3.30
2023-02-24T00:34:30.102Z,3.30
2023-02-24T00:36:57.484Z,3.30
2023-02-24T00:39:28.493Z,3.30
2023-02-24T00:42:04.328Z,3.30
2023-02-24T00:44:36.810Z,3.30
2023-02-24T00:47:06.966Z,3.30
2023-02-24T00:49:35.898Z,3.30
2023-02-24T00:52:06.609Z,3.30
2023-02-24T00:54:36.735Z,3.40
2023-02-24T00:57:03.826Z,3.40
2023-02-24T00:59:30.873Z,3.40
2023-02-24T01:01:58.057Z,3.40
2023-02-24T01:04:25.128Z,3.40
2023-02-24T01:07:00.129Z,3.40
2023-02-24T01:09:30.398Z,3.50
2023-02-24T01:12:16.708Z,3.50
2023-02-24T01:14:47.834Z,3.40
2023-02-24T01:17:16.634Z,3.40
2023-02-24T01:19:44.727Z,3.30
2023-02-24T01:22:14.968Z,3.20
2023-02-24T01:24:43.705Z,3.10
2023-02-24T01:27:13.099Z,3.00
2023-02-24T01:29:40.035Z,2.90
2023-02-24T01:32:12.893Z,2.80
2023-02-24T01:34:42.358Z,2.70
2023-02-24T01:37:10.316Z,2.60
2023-02-24T01:39:37.379Z,2.50
2023-02-24T01:42:06.218Z,2.50
2023-02-24T01:44:33.294Z,2.30
2023-02-24T01:47:04.031Z,2.30
2023-02-24T01:49:41.762Z,2.20
2023-02-24T01:52:20.794Z,2.20
2023-02-24T01:54:59.204Z,2.10
2023-02-24T01:57:29.678Z,2.00
2023-02-24T02:00:09.564Z,2.00
2023-02-24T02:02:38.860Z,2.00
2023-02-24T02:05:09.868Z,2.00
2023-02-24T02:07:39.627Z,1.90
2023-02-24T02:10:10.527Z,1.90
2023-02-24T02:12:44.196Z,1.90
2023-02-24T02:15:15.348Z,1.90
2023-02-24T02:18:17.786Z,2.00
2023-02-24T02:21:31.155Z,2.00
2023-02-24T02:24:13.146Z,2.10
2023-02-24T02:26:49.820Z,2.20
2023-02-24T02:29:56.743Z,2.20
2023-02-24T02:32:55.470Z,2.30
2023-02-24T02:35:31.727Z,2.40
2023-02-24T02:38:25.909Z,2.40
2023-02-24T02:41:11.179Z,2.50
2023-02-24T02:44:15.604Z,2.50
2023-02-24T02:46:47.809Z,2.60
2023-02-24T02:49:18.711Z,2.60
2023-02-24T02:51:56.886Z,2.60
2023-02-24T02:54:49.735Z,2.60
2023-02-24T02:57:38.392Z,2.70
2023-02-24T03:00:21.324Z,2.70
2023-02-24T03:02:52.041Z,2.70
2023-02-24T03:05:29.606Z,2.70
2023-02-24T03:07:59.301Z,2.80
2023-02-24T03:10:29.046Z,2.80
2023-02-24T03:13:00.597Z,2.80
2023-02-24T03:15:30.319Z,2.80
2023-02-24T03:18:15.232Z,2.70
2023-02-24T03:20:53.034Z,2.70
2023-02-24T03:23:25.845Z,2.70
2023-02-24T03:26:11.539Z,2.60
2023-02-24T03:28:42.515Z,2.70
2023-02-24T03:31:27.719Z,2.70
2023-02-24T03:34:03.703Z,2.70
2023-02-24T03:36:30.769Z,2.80
2023-02-24T03:38:59.270Z,2.80
2023-02-24T03:41:35.705Z,2.80
2023-02-24T03:44:03.744Z,2.90
2023-02-24T03:46:32.137Z,2.90
2023-02-24T03:49:17.092Z,3.00
2023-02-24T03:52:09.752Z,3.00
2023-02-24T03:54:47.011Z,3.10
2023-02-24T03:57:34.684Z,3.10
2023-02-24T04:00:34.080Z,3.10
2023-02-24T04:03:25.511Z,3.10
2023-02-24T04:06:14.277Z,3.20
2023-02-24T04:08:47.291Z,3.10
2023-02-24T04:11:37.487Z,3.10
2023-02-24T04:14:18.668Z,3.10
2023-02-24T04:16:51.732Z,3.10
2023-02-24T04:19:22.854Z,3.10
2023-02-24T04:21:51.035Z,3.10
2023-02-24T04:24:21.357Z,3.10
2023-02-24T04:26:49.541Z,3.10
2023-02-24T04:29:23.084Z,3.10
2023-02-24T04:31:54.761Z,3.10
2023-02-24T04:34:21.723Z,3.00
2023-02-24T04:36:49.856Z,3.00
2023-02-24T04:39:20.989Z,3.00
2023-02-24T04:41:50.543Z,3.00
2023-02-24T04:44:19.234Z,3.00
2023-02-24T04:46:47.156Z,3.00
2023-02-24T04:49:14.056Z,3.00
2023-02-24T04:51:42.443Z,3.00
2023-02-24T04:54:11.056Z,3.00
2023-02-24T04:56:40.751Z,3.00
2023-02-24T04:59:10.314Z,3.00
2023-02-24T05:01:42.089Z,3.00
2023-02-24T05:04:09.907Z,3.00
2023-02-24T05:06:40.865Z,3.00
2023-02-24T05:09:14.133Z,3.00
2023-02-24T05:11:42.596Z,3.00
2023-02-24T05:14:17.731Z,3.00
2023-02-24T05:16:46.996Z,3.00
2023-02-24T05:19:35.050Z,3.10
2023-02-24T05:22:07.192Z,3.10
2023-02-24T05:24:34.977Z,3.10
2023-02-24T05:27:03.880Z,3.10
2023-02-24T05:29:33.554Z,3.20
2023-02-24T05:32:01.327Z,3.20
2023-02-24T05:34:30.600Z,3.20
2023-02-24T05:36:59.469Z,3.20
2023-02-24T05:39:28.332Z,3.20
2023-02-24T05:41:56.897Z,3.30
2023-02-24T05:44:26.194Z,3.30
2023-02-24T05:47:00.092Z,3.20
2023-02-24T05:49:32.921Z,3.30
2023-02-24T05:52:02.475Z,3.30
2023-02-24T05:54:31.966Z,3.30
2023-02-24T05:57:12.048Z,3.30
2023-02-24T05:59:42.417Z,3.40
2023-02-24T06:02:11.586Z,3.40
2023-02-24T06:04:40.730Z,3.40
2023-02-24T06:07:19.819Z,3.40
2023-02-24T06:09:50.245Z,3.40
2023-02-24T06:12:18.195Z,3.40
2023-02-24T06:14:45.173Z,3.40
2023-02-24T06:17:12.604Z,3.50
2023-02-24T06:19:41.225Z,3.50
2023-02-24T06:22:11.981Z,3.40
2023-02-24T06:24:44.373Z,3.50
2023-02-24T06:27:17.991Z,3.50
2023-02-24T06:29:49.766Z,3.50
2023-02-24T06:32:18.019Z,3.50
2023-02-24T06:34:45.019Z,3.50
2023-02-24T06:37:14.426Z,3.50
2023-02-24T06:39:41.952Z,3.40
2023-02-24T06:42:10.514Z,3.40
2023-02-24T06:44:38.962Z,3.40
2023-02-24T06:47:07.370Z,3.40
2023-02-24T06:49:34.447Z,3.30
2023-02-24T06:52:01.778Z,3.20
2023-02-24T06:54:30.479Z,3.20
2023-02-24T06:56:59.392Z,3.20
2023-02-24T06:59:29.753Z,3.10
2023-02-24T07:01:58.383Z,3.10
2023-02-24T07:04:28.367Z,3.10
2023-02-24T07:07:02.844Z,3.00
2023-02-24T07:09:30.787Z,3.00
2023-02-24T07:11:58.749Z,3.00
2023-02-24T07:14:27.825Z,3.00
2023-02-24T07:16:55.305Z,3.00
2023-02-24T07:19:25.769Z,3.00
2023-02-24T07:22:00.033Z,3.00
2023-02-24T07:24:36.702Z,3.00
2023-02-24T07:27:10.978Z,3.00
2023-02-24T07:29:38.162Z,3.00
2023-02-24T07:32:08.909Z,3.00
2023-02-24T07:34:40.751Z,3.00
2023-02-24T07:37:09.223Z,3.10
2023-02-24T07:39:37.757Z,3.10
2023-02-24T07:42:07.613Z,3.00
2023-02-24T07:44:34.462Z,3.10
2023-02-24T07:47:07.636Z,3.10
2023-02-24T07:49:34.956Z,3.10
2023-02-24T07:52:02.022Z,3.10
2023-02-24T07:54:30.188Z,3.10
2023-02-24T07:56:59.348Z,3.20
2023-02-24T07:59:32.441Z,3.20
2023-02-24T08:02:00.597Z,3.20
2023-02-24T08:04:30.292Z,3.20
2023-02-24T08:07:02.406Z,3.20
2023-02-24T08:09:47.099Z,3.30
2023-02-24T08:12:21.493Z,3.30
2023-02-24T08:14:52.368Z,3.20
2023-02-24T08:17:28.288Z,3.20
2023-02-24T08:20:14.204Z,3.20
2023-02-24T08:22:47.046Z,3.30
2023-02-24T08:25:19.013Z,3.30
2023-02-24T08:28:08.541Z,3.30
2023-02-24T08:30:39.449Z,3.30
2023-02-24T08:33:15.918Z,3.30
2023-02-24T08:35:45.157Z,3.30
2023-02-24T08:38:20.886Z,3.40
2023-02-24T08:40:54.471Z,3.40
2023-02-24T08:43:30.073Z,3.40
2023-02-24T08:46:18.880Z,3.40
2023-02-24T08:49:00.006Z,3.40
2023-02-24T08:51:30.360Z,3.40
2023-02-24T08:54:00.397Z,3.40
2023-02-24T08:56:30.127Z,3.50
2023-02-24T08:59:06.870Z,3.50
2023-02-24T09:01:36.800Z,3.50
2023-02-24T09:04:12.388Z,3.50
2023-02-24T09:06:44.074Z,3.60
2023-02-24T09:09:23.376Z,3.60
2023-02-24T09:11:58.364Z,3.70
2023-02-24T09:14:39.112Z,3.70
2023-02-24T09:17:11.031Z,3.80
2023-02-24T09:19:48.206Z,3.80
2023-02-24T09:22:32.842Z,3.80
2023-02-24T09:25:25.980Z,3.80
2023-02-24T09:28:08.917Z,3.90
2023-02-24T09:30:51.212Z,3.90
2023-02-24T09:33:25.100Z,4.00
2023-02-24T09:36:11.026Z,4.10
2023-02-24T09:39:07.338Z,4.10
2023-02-24T09:41:56.923Z,4.10
2023-02-24T09:44:40.461Z,4.10
2023-02-24T09:47:19.756Z,4.10
2023-02-24T09:49:58.051Z,4.20
2023-02-24T09:52:43.061Z,4.30
2023-02-24T09:55:35.736Z,4.30
2023-02-24T09:58:48.088Z,4.30
2023-02-24T10:01:21.639Z,4.40
2023-02-24T10:04:18.312Z,4.40
2023-02-24T10:06:49.983Z,4.40
2023-02-24T10:09:21.724Z,4.40
2023-02-24T10:11:53.702Z,4.40
2023-02-24T10:14:43.869Z,4.40
2023-02-24T10:17:26.066Z,4.40
2023-02-24T10:20:00.782Z,4.40
2023-02-24T10:22:50.832Z,4.50
2023-02-24T10:25:54.384Z,4.40
2023-02-24T10:28:35.880Z,4.50
2023-02-24T10:31:25.407Z,4.60
2023-02-24T10:34:08.566Z,4.60
2023-02-24T10:36:36.822Z,4.70
2023-02-24T10:39:25.487Z,4.70
2023-02-24T10:42:15.702Z,4.70
2023-02-24T10:45:02.341Z,4.80
2023-02-24T10:47:31.620Z,4.90
2023-02-24T10:50:00.902Z,4.90
2023-02-24T10:53:10.897Z,4.90
2023-02-24T10:55:47.415Z,5.00
2023-02-24T10:58:44.750Z,5.00
2023-02-24T11:01:21.112Z,5.00
2023-02-24T11:04:01.515Z,5.10
2023-02-24T11:06:40.278Z,5.10
2023-02-24T11:09:27.483Z,5.10
2023-02-24T11:12:19.046Z,5.10
2023-02-24T11:15:33.364Z,5.20
2023-02-24T11:18:00.951Z,5.30
2023-02-24T11:20:47.763Z,5.50
2023-02-24T11:23:46.512Z,5.70
2023-02-24T11:26:27.036Z,6.20
2023-02-24T11:29:19.851Z,6.60
2023-02-24T11:31:58.970Z,7.10
2023-02-24T11:34:49.758Z,7.60
2023-02-24T11:37:34.684Z,8.20
2023-02-24T11:40:03.437Z,8.70
2023-02-24T11:42:37.467Z,8.80
2023-02-24T11:45:22.764Z,8.90
2023-02-24T11:47:55.462Z,8.80
2023-02-24T11:50:46.141Z,8.70
2023-02-24T11:53:25.105Z,8.60
2023-02-24T11:55:59.753Z,8.30
2023-02-24T11:59:01.199Z,8.10
2023-02-24T12:01:52.526Z,7.90
2023-02-24T12:04:37.894Z,7.70
2023-02-24T12:07:20.152Z,7.80
2023-02-24T12:10:00.325Z,7.90
2023-02-24T12:12:48.776Z,8.00
2023-02-24T12:15:43.418Z,8.30
2023-02-24T12:18:43.937Z,8.50
2023-02-24T12:21:14.753Z,8.50
2023-02-24T12:23:48.350Z,8.40
2023-02-24T12:26:42.665Z,8.30
2023-02-24T12:29:42.518Z,8.30
2023-02-24T12:32:43.022Z,8.30
2023-02-24T12:35:22.489Z,8.20
2023-02-24T12:37:58.294Z,8.10
2023-02-24T12:40:34.025Z,8.50
2023-02-24T12:43:14.379Z,9.50
2023-02-24T12:45:47.790Z,10.70
2023-02-24T12:48:40.285Z,12.00
2023-02-24T12:51:37.678Z,13.20
2023-02-24T12:54:39.618Z,14.00
2023-02-24T12:57:22.635Z,14.80
2023-02-24T12:59:50.628Z,15.20
2023-02-24T13:02:39.330Z,15.40
2023-02-24T13:05:21.119Z,14.80
2023-02-24T13:08:09.878Z,13.60
2023-02-24T13:10:55.706Z,11.80
2023-02-24T13:13:37.476Z,10.20
2023-02-24T13:16:04.947Z,9.00
2023-02-24T13:18:35.016Z,8.10
2023-02-24T13:21:23.406Z,7.50
2023-02-24T13:23:58.290Z,7.00
2023-02-24T13:26:26.763Z,6.80
2023-02-24T13:29:11.582Z,6.70
2023-02-24T13:31:41.535Z,7.00
2023-02-24T13:34:44.948Z,7.60
2023-02-24T13:37:14.314Z,8.60
2023-02-24T13:39:44.456Z,9.40
2023-02-24T13:42:25.012Z,9.80
2023-02-24T13:45:17.432Z,10.50
2023-02-24T13:48:02.498Z,10.90
2023-02-24T13:50:57.150Z,11.20
2023-02-24T13:53:40.710Z,11.40
2023-02-24T13:56:20.199Z,11.30
2023-02-24T13:58:46.990Z,11.20
2023-02-24T14:01:16.829Z,11.00
2023-02-24T14:04:13.013Z,10.80
2023-02-24T14:06:40.067Z,10.70
2023-02-24T14:09:07.496Z,10.50
2023-02-24T14:11:37.129Z,10.30
2023-02-24T14:14:04.397Z,10.00
2023-02-24T14:16:42.259Z,9.60
2023-02-24T14:19:16.287Z,9.10
2023-02-24T14:21:51.688Z,8.60
2023-02-24T14:24:19.274Z,8.30
2023-02-24T14:26:52.463Z,8.00
2023-02-24T14:29:38.361Z,7.90
2023-02-24T14:32:24.156Z,7.90
2023-02-24T14:34:52.356Z,8.20
2023-02-24T14:37:24.612Z,8.50
2023-02-24T14:39:57.427Z,8.70
2023-02-24T14:42:25.702Z,8.90
2023-02-24T14:44:54.727Z,8.90
2023-02-24T14:47:24.585Z,8.80
2023-02-24T14:49:59.997Z,8.60
2023-02-24T14:52:51.182Z,8.40
2023-02-24T14:55:21.796Z,8.20
2023-02-24T14:58:19.225Z,8.00
2023-02-24T15:00:54.485Z,7.80
2023-02-24T15:03:26.487Z,7.60
2023-02-24T15:05:56.759Z,7.40
2023-02-24T15:08:41.077Z,7.20
2023-02-24T15:11:17.068Z,6.80
2023-02-24T15:13:48.618Z,6.50
2023-02-24T15:16:28.256Z,6.30
2023-02-24T15:19:00.014Z,6.10
2023-02-24T15:21:39.934Z,6.00
2023-02-24T15:24:24.951Z,6.00
2023-02-24T15:26:59.862Z,6.00
2023-02-24T15:29:30.260Z,5.90
2023-02-24T15:32:00.072Z,6.00
2023-02-24T15:34:35.028Z,6.00
2023-02-24T15:37:23.112Z,6.00
2023-02-24T15:39:54.898Z,6.00
2023-02-24T15:42:31.703Z,6.00
2023-02-24T15:44:59.393Z,6.00
2023-02-24T15:47:29.598Z,6.00
2023-02-24T15:49:56.567Z,6.10
2023-02-24T15:52:28.803Z,6.10
2023-02-24T15:54:58.107Z,6.00
2023-02-24T15:57:25.548Z,6.00
2023-02-24T15:59:52.438Z,5.90
2023-02-24T16:02:22.296Z,5.80
2023-02-24T16:04:50.460Z,5.80
2023-02-24T16:07:32.470Z,5.70
2023-02-24T16:10:01.050Z,5.60
2023-02-24T16:12:35.072Z,5.50
2023-02-24T16:15:05.472Z,5.50
2023-02-24T16:17:39.164Z,5.50
2023-02-24T16:20:18.771Z,5.50
2023-02-24T16:22:46.133Z,5.40
2023-02-24T16:25:16.461Z,5.30
2023-02-24T16:27:43.805Z,5.30
2023-02-24T16:30:17.676Z,5.20
2023-02-24T16:32:45.944Z,5.20
2023-02-24T16:35:14.412Z,5.10
2023-02-24T16:37:41.482Z,5.00
2023-02-24T16:40:20.372Z,4.90
2023-02-24T16:42:48.330Z,4.90
2023-02-24T16:45:15.802Z,4.90
2023-02-24T16:47:44.156Z,4.90
2023-02-24T16:50:20.435Z,5.00
2023-02-24T16:52:47.331Z,5.00
2023-02-24T16:55:14.932Z,5.00
2023-02-24T16:57:42.248Z,5.00
2023-02-24T17:00:11.899Z,4.90
2023-02-24T17:02:41.193Z,4.80
2023-02-24T17:05:21.028Z,4.70
2023-02-24T17:07:49.156Z,4.60
2023-02-24T17:10:17.659Z,4.60
2023-02-24T17:12:45.948Z,4.60
2023-02-24T17:15:17.321Z,4.50
2023-02-24T17:17:44.193Z,4.50
2023-02-24T17:20:16.639Z,4.40
2023-02-24T17:22:44.767Z,4.30
2023-02-24T17:25:24.376Z,4.20
2023-02-24T17:27:52.271Z,4.30
2023-02-24T17:30:28.455Z,4.30
2023-02-24T17:32:56.247Z,4.30
2023-02-24T17:35:23.784Z,4.40
2023-02-24T17:37:51.044Z,4.40
2023-02-24T17:40:26.363Z,4.40
2023-02-24T17:42:53.241Z,4.30
2023-02-24T17:45:20.308Z,4.20
2023-02-24T17:47:47.303Z,4.20
2023-02-24T17:50:14.820Z,4.20
2023-02-24T17:52:44.218Z,4.20
2023-02-24T17:55:11.366Z,4.30
2023-02-24T17:57:39.858Z,4.30
2023-02-24T18:00:08.531Z,4.30
2023-02-24T18:02:35.691Z,4.30
2023-02-24T18:05:02.846Z,4.30
2023-02-24T18:07:30.130Z,4.30
2023-02-24T18:09:57.071Z,4.30
2023-02-24T18:12:24.799Z,4.30
2023-02-24T18:15:07.003Z,4.30
2023-02-24T18:17:36.143Z,4.40
2023-02-24T18:20:04.121Z,4.40
2023-02-24T18:22:31.108Z,4.40
2023-02-24T18:24:59.255Z,4.40
2023-02-24T18:27:26.184Z,4.30
2023-02-24T18:29:54.124Z,4.30
2023-02-24T18:32:21.186Z,4.30
2023-02-24T18:34:48.220Z,4.20
2023-02-24T18:37:21.250Z,4.10
2023-02-24T18:39:48.168Z,4.00
2023-02-24T18:42:15.046Z,3.90
2023-02-24T18:44:42.218Z,3.80
2023-02-24T18:47:09.841Z,3.70
2023-02-24T18:49:37.656Z,3.70
2023-02-24T18:52:05.517Z,3.70
2023-02-24T18:54:34.469Z,3.70
2023-02-24T18:57:01.930Z,3.70
2023-02-24T18:59:28.940Z,3.70
2023-02-24T19:01:56.933Z,3.70
2023-02-24T19:04:25.109Z,3.70
2023-02-24T19:06:52.265Z,3.70
2023-02-24T19:09:21.732Z,3.70
2023-02-24T19:11:49.748Z,3.60
2023-02-24T19:14:17.005Z,3.60
2023-02-24T19:16:44.237Z,3.60
2023-02-24T19:19:16.457Z,3.60
2023-02-24T19:21:45.812Z,3.60
2023-02-24T19:24:14.048Z,3.60
2023-02-24T19:26:42.751Z,3.60
2023-02-24T19:29:11.161Z,3.60
2023-02-24T19:31:38.454Z,3.60
2023-02-24T19:34:10.825Z,3.60
2023-02-24T19:36:37.968Z,3.60
2023-02-24T19:39:08.701Z,3.60
2023-02-24T19:41:37.043Z,3.60
2023-02-24T19:44:04.506Z,3.50
2023-02-24T19:46:34.017Z,3.50
2023-02-24T19:49:01.544Z,3.40
2023-02-24T19:51:29.410Z,3.40
2023-02-24T19:53:58.629Z,3.30
2023-02-24T19:56:27.912Z,3.30
2023-02-24T19:58:56.595Z,3.30
2023-02-24T20:01:24.778Z,3.20
2023-02-24T20:03:55.171Z,3.20
2023-02-24T20:06:30.336Z,3.10
2023-02-24T20:08:58.352Z,3.10
2023-02-24T20:11:25.827Z,3.00
2023-02-24T20:13:53.583Z,3.00
2023-02-24T20:16:23.749Z,2.90
2023-02-24T20:18:51.322Z,3.00
2023-02-24T20:21:18.211Z,3.00
2023-02-24T20:23:45.105Z,3.00
2023-02-24T20:26:16.465Z,3.00
2023-02-24T20:28:44.586Z,3.00
2023-02-24T20:31:18.484Z,3.10
2023-02-24T20:33:47.400Z,3.10
2023-02-24T20:36:23.482Z,3.20
2023-02-24T20:38:51.972Z,3.20
2023-02-24T20:41:20.886Z,3.30
2023-02-24T20:43:48.596Z,3.30
2023-02-24T20:46:25.996Z,3.40
2023-02-24T20:48:56.998Z,3.50
2023-02-24T20:51:24.213Z,3.50
2023-02-24T20:53:57.765Z,3.50
2023-02-24T20:56:29.537Z,3.50
2023-02-24T20:59:02.400Z,3.50
2023-02-24T21:01:31.038Z,3.60
2023-02-24T21:03:59.049Z,3.60
2023-02-24T21:06:26.532Z,3.60
2023-02-24T21:08:54.011Z,3.60
2023-02-24T21:11:21.489Z,3.70
2023-02-24T21:13:50.460Z,3.70
2023-02-24T21:16:19.245Z,3.70
2023-02-24T21:18:47.889Z,3.70
2023-02-24T21:21:16.564Z,3.70
2023-02-24T21:23:43.701Z,3.60
2023-02-24T21:26:11.929Z,3.70
2023-02-24T21:28:40.303Z,3.70
2023-02-24T21:31:13.219Z,3.60
2023-02-24T21:33:40.568Z,3.50
2023-02-24T21:36:11.277Z,3.50
2023-02-24T21:38:38.416Z,3.50
2023-02-24T21:41:07.915Z,3.50
2023-02-24T21:43:35.561Z,3.40
2023-02-24T21:46:05.537Z,3.40
2023-02-24T21:48:34.823Z,3.40
2023-02-24T21:51:04.193Z,3.40
2023-02-24T21:53:33.792Z,3.30
2023-02-24T21:56:28.217Z,3.20
2023-02-24T21:59:02.680Z,3.20
2023-02-24T22:01:32.191Z,3.20
2023-02-24T22:04:02.628Z,3.10
2023-02-24T22:06:33.252Z,3.10
2023-02-24T22:09:01.429Z,3.10
2023-02-24T22:11:31.807Z,3.10
2023-02-24T22:13:59.060Z,3.10
2023-02-24T22:16:26.720Z,3.00
2023-02-24T22:18:55.280Z,3.00
2023-02-24T22:21:24.178Z,3.00
2023-02-24T22:23:53.470Z,3.00
2023-02-24T22:26:23.720Z,3.10
2023-02-24T22:28:51.249Z,3.10
2023-02-24T22:31:21.477Z,3.10
2023-02-24T22:33:48.961Z,3.10
2023-02-24T22:36:22.115Z,3.20
2023-02-24T22:38:49.202Z,3.30
2023-02-24T22:41:18.912Z,3.30
2023-02-24T22:43:46.191Z,3.30
2023-02-24T22:46:27.558Z,3.40
2023-02-24T22:48:56.036Z,3.40
2023-02-24T22:51:23.647Z,3.50
2023-02-24T22:53:51.032Z,3.50
2023-02-24T22:56:21.445Z,3.50
2023-02-24T22:58:48.633Z,3.50
2023-02-24T23:01:17.388Z,3.50
2023-02-24T23:03:46.031Z,3.50
2023-02-24T23:06:15.945Z,3.50
2023-02-24T23:08:46.337Z,3.50
2023-02-24T23:11:21.947Z,3.50
2023-02-24T23:13:50.639Z,3.50
2023-02-24T23:16:20.261Z,3.50
2023-02-24T23:18:53.158Z,3.60
2023-02-24T23:21:23.108Z,3.60
2023-02-24T23:23:52.742Z,3.60
2023-02-24T23:26:19.582Z,3.70
2023-02-24T23:28:46.486Z,3.70
2023-02-24T23:31:19.928Z,3.70
2023-02-24T23:33:46.909Z,3.80
2023-02-24T23:36:13.797Z,3.80
2023-02-24T23:38:40.632Z,3.80
2023-02-24T23:41:09.325Z,3.80
2023-02-24T23:43:36.211Z,3.80
2023-02-24T23:46:05.180Z,3.80
2023-02-24T23:48:32.381Z,3.70
2023-02-24T23:51:03.327Z,3.70
2023-02-24T23:53:30.198Z,3.60
2023-02-24T23:55:57.765Z,3.50
2023-02-24T23:58:24.761Z,3.50
